Umm Slal — V7PW3 — position and weather

sailwx.info

Track history (hours):
 
Tides and Currents Weather Stations Pressure Air Temp Water Temp Dewpoint Dewpoint Depression Visibility Wind Speed Wind Dir Waves Ship Positions

Umm Slal

Last reported at 2014-Nov-30 09:24 UTC. Time now 2014-Dec-18 23:47 UTC.
Position N 35°49' E 016°23'.
Warning: this ship's position is 18 days out of date.

Length 345 m; draft 9.3 m.

Type: Ship (hazmat cat A). MMSI: 538003300.

Date/timePositionNaut miles runAvg speedWind from/ knotsBaromVisibWave heightAir tempDewpointWater temp
2014-Nov-30 09:24N 35°49' E 016°23'3415.5
2014-Nov-30 07:12N 35°58' E 015°43'1215.4
2014-Nov-30 06:26N 36°01' E 015°28'1415.9
2014-Nov-30 05:33N 36°05' E 015°12'1515.6
2014-Nov-30 04:33N 36°09' E 014°53'1615.9
2014-Nov-30 03:33N 36°13' E 014°34'1615.8
2014-Nov-30 02:33N 36°18' E 014°16'1615.6
2014-Nov-30 01:33N 36°22' E 013°57'1515.3
2014-Nov-30 00:33N 36°28' E 013°40'1515.3
2014-Nov-29 23:33N 36°34' E 013°22'1615.5
2014-Nov-29 22:33N 36°39' E 013°04'1515.3
2014-Nov-29 21:33N 36°45' E 012°46'1515.4
2014-Nov-29 20:33N 36°51' E 012°29'1515.1
2014-Nov-29 19:33N 36°57' E 012°11'4915.0
2014-Nov-29 16:16N 37°18' E 011°15'4215.1
2014-Nov-29 13:27N 37°39' E 010°29'1716.4
2014-Nov-29 12:25N 37°46' E 010°09'1817.0
2014-Nov-29 11:22N 37°52' E 009°48'1316.4
2014-Nov-29 10:33N 37°57' E 009°32'1616.0
2014-Nov-29 09:33N 38°02' E 009°13'70316.0
2014-Nov-27 13:33N 35°60' W 005°14'  
2014-Nov-21 01:11N 38°30' W 009°53'1117.5
2014-Nov-21 00:33N 38°19' W 009°50'1817.7
2014-Nov-20 23:33N 38°02' W 009°43'1817.7
2014-Nov-20 22:33N 37°45' W 009°38'1717.5
2014-Nov-20 21:33N 37°28' W 009°33'5914.7
2014-Nov-20 17:33N 36°38' W 008°54'1716.9
2014-Nov-20 16:33N 36°36' W 008°33'  
Track history (hours):
 
Tides and Currents Weather Stations Pressure Air Temp Water Temp Dewpoint Dewpoint Depression Visibility Wind Speed Wind Dir Waves Ship Positions

Umm Slal

Last reported at 2014-Nov-30 09:24 UTC. Time now 2014-Dec-18 23:47 UTC.
Position N 35°49' E 016°23'.
Warning: this ship's position is 18 days out of date.

Length 345 m; draft 9.3 m.

Type: Ship (hazmat cat A). MMSI: 538003300.

Date/timePositionNaut miles runAvg speedWind from/ knotsBaromVisibWave heightAir tempDewpointWater temp
2014-Nov-30 09:24N 35°49' E 016°23'3415.5
2014-Nov-30 07:12N 35°58' E 015°43'1215.4
2014-Nov-30 06:26N 36°01' E 015°28'1415.9
2014-Nov-30 05:33N 36°05' E 015°12'1515.6
2014-Nov-30 04:33N 36°09' E 014°53'1615.9
2014-Nov-30 03:33N 36°13' E 014°34'1615.8
2014-Nov-30 02:33N 36°18' E 014°16'1615.6
2014-Nov-30 01:33N 36°22' E 013°57'1515.3
2014-Nov-30 00:33N 36°28' E 013°40'1515.3
2014-Nov-29 23:33N 36°34' E 013°22'1615.5
2014-Nov-29 22:33N 36°39' E 013°04'1515.3
2014-Nov-29 21:33N 36°45' E 012°46'1515.4
2014-Nov-29 20:33N 36°51' E 012°29'1515.1
2014-Nov-29 19:33N 36°57' E 012°11'4915.0
2014-Nov-29 16:16N 37°18' E 011°15'4215.1
2014-Nov-29 13:27N 37°39' E 010°29'1716.4
2014-Nov-29 12:25N 37°46' E 010°09'1817.0
2014-Nov-29 11:22N 37°52' E 009°48'1316.4
2014-Nov-29 10:33N 37°57' E 009°32'1616.0
2014-Nov-29 09:33N 38°02' E 009°13'70316.0
2014-Nov-27 13:33N 35°60' W 005°14'  
2014-Nov-21 01:11N 38°30' W 009°53'1117.5
2014-Nov-21 00:33N 38°19' W 009°50'1817.7
2014-Nov-20 23:33N 38°02' W 009°43'1817.7
2014-Nov-20 22:33N 37°45' W 009°38'1717.5
2014-Nov-20 21:33N 37°28' W 009°33'5914.7
2014-Nov-20 17:33N 36°38' W 008°54'1716.9
2014-Nov-20 16:33N 36°36' W 008°33'  

Dump ship's entire track history